sensor_id;sensor_type;location;lat;lon;timestamp;P1;durP1;ratioP1;P2;durP2;ratioP2
17153;SDS011;8692;52.164;7.558;2023-04-16T00:02:06;39.43;;;24.70;;
17153;SDS011;8692;52.164;7.558;2023-04-16T00:04:34;46.10;;;25.63;;
17153;SDS011;8692;52.164;7.558;2023-04-16T00:07:04;46.40;;;25.87;;
17153;SDS011;8692;52.164;7.558;2023-04-16T00:09:34;44.80;;;25.60;;
17153;SDS011;8692;52.164;7.558;2023-04-16T00:12:02;40.93;;;26.20;;
17153;SDS011;8692;52.164;7.558;2023-04-16T00:14:31;48.80;;;26.73;;
17153;SDS011;8692;52.164;7.558;2023-04-16T00:16:59;43.07;;;26.80;;
17153;SDS011;8692;52.164;7.558;2023-04-16T00:19:27;43.03;;;25.90;;
17153;SDS011;8692;52.164;7.558;2023-04-16T00:21:55;48.63;;;27.30;;
17153;SDS011;8692;52.164;7.558;2023-04-16T00:24:24;45.33;;;26.70;;
17153;SDS011;8692;52.164;7.558;2023-04-16T00:26:55;48.27;;;27.20;;
17153;SDS011;8692;52.164;7.558;2023-04-16T00:29:26;46.17;;;27.73;;
17153;SDS011;8692;52.164;7.558;2023-04-16T00:31:56;49.87;;;27.93;;
17153;SDS011;8692;52.164;7.558;2023-04-16T00:34:26;48.60;;;27.60;;
17153;SDS011;8692;52.164;7.558;2023-04-16T00:36:54;45.20;;;27.20;;
17153;SDS011;8692;52.164;7.558;2023-04-16T00:39:23;44.57;;;28.07;;
17153;SDS011;8692;52.164;7.558;2023-04-16T00:41:53;52.87;;;26.63;;
17153;SDS011;8692;52.164;7.558;2023-04-16T00:44:23;40.07;;;26.90;;
17153;SDS011;8692;52.164;7.558;2023-04-16T00:46:53;45.10;;;28.50;;
17153;SDS011;8692;52.164;7.558;2023-04-16T00:49:22;43.80;;;26.90;;
17153;SDS011;8692;52.164;7.558;2023-04-16T00:51:51;41.40;;;25.20;;
17153;SDS011;8692;52.164;7.558;2023-04-16T00:54:19;42.13;;;26.40;;
17153;SDS011;8692;52.164;7.558;2023-04-16T00:56:48;48.27;;;27.97;;
17153;SDS011;8692;52.164;7.558;2023-04-16T00:59:18;44.07;;;26.23;;
17153;SDS011;8692;52.164;7.558;2023-04-16T01:01:49;43.07;;;26.57;;
17153;SDS011;8692;52.164;7.558;2023-04-16T01:04:18;45.33;;;26.20;;
17153;SDS011;8692;52.164;7.558;2023-04-16T01:06:48;46.30;;;27.40;;
17153;SDS011;8692;52.164;7.558;2023-04-16T01:09:17;51.00;;;29.63;;
17153;SDS011;8692;52.164;7.558;2023-04-16T01:11:48;37.93;;;26.03;;
17153;SDS011;8692;52.164;7.558;2023-04-16T01:14:16;41.27;;;27.70;;
17153;SDS011;8692;52.164;7.558;2023-04-16T01:16:45;46.33;;;27.80;;
17153;SDS011;8692;52.164;7.558;2023-04-16T01:19:14;39.00;;;24.97;;
17153;SDS011;8692;52.164;7.558;2023-04-16T01:21:43;34.57;;;24.67;;
17153;SDS011;8692;52.164;7.558;2023-04-16T01:24:12;38.30;;;26.40;;
17153;SDS011;8692;52.164;7.558;2023-04-16T01:26:42;35.53;;;26.97;;
17153;SDS011;8692;52.164;7.558;2023-04-16T01:29:12;38.30;;;26.03;;
17153;SDS011;8692;52.164;7.558;2023-04-16T01:31:40;37.13;;;26.23;;
17153;SDS011;8692;52.164;7.558;2023-04-16T01:34:26;35.43;;;27.63;;
17153;SDS011;8692;52.164;7.558;2023-04-16T01:36:55;38.63;;;27.13;;
17153;SDS011;8692;52.164;7.558;2023-04-16T01:39:24;40.60;;;27.47;;
17153;SDS011;8692;52.164;7.558;2023-04-16T01:41:55;46.87;;;28.90;;
17153;SDS011;8692;52.164;7.558;2023-04-16T01:44:23;43.50;;;28.17;;
17153;SDS011;8692;52.164;7.558;2023-04-16T01:46:51;40.00;;;29.00;;
17153;SDS011;8692;52.164;7.558;2023-04-16T01:49:22;52.57;;;31.10;;
17153;SDS011;8692;52.164;7.558;2023-04-16T01:51:50;42.37;;;28.60;;
17153;SDS011;8692;52.164;7.558;2023-04-16T01:54:22;35.30;;;27.60;;
17153;SDS011;8692;52.164;7.558;2023-04-16T01:56:53;40.07;;;27.13;;
17153;SDS011;8692;52.164;7.558;2023-04-16T01:59:21;44.67;;;28.43;;
17153;SDS011;8692;52.164;7.558;2023-04-16T02:01:49;34.77;;;28.60;;
17153;SDS011;8692;52.164;7.558;2023-04-16T02:04:20;39.47;;;29.13;;
17153;SDS011;8692;52.164;7.558;2023-04-16T02:06:48;39.73;;;27.80;;
17153;SDS011;8692;52.164;7.558;2023-04-16T02:09:16;36.30;;;27.80;;
17153;SDS011;8692;52.164;7.558;2023-04-16T02:11:46;37.90;;;27.00;;
17153;SDS011;8692;52.164;7.558;2023-04-16T02:14:14;38.23;;;26.57;;
17153;SDS011;8692;52.164;7.558;2023-04-16T02:16:45;36.43;;;28.03;;
17153;SDS011;8692;52.164;7.558;2023-04-16T02:19:31;39.93;;;30.03;;
17153;SDS011;8692;52.164;7.558;2023-04-16T02:22:02;42.27;;;29.47;;
17153;SDS011;8692;52.164;7.558;2023-04-16T02:24:32;39.00;;;27.67;;
17153;SDS011;8692;52.164;7.558;2023-04-16T02:27:06;39.43;;;28.33;;
17153;SDS011;8692;52.164;7.558;2023-04-16T02:29:34;39.17;;;28.50;;
17153;SDS011;8692;52.164;7.558;2023-04-16T02:32:09;36.97;;;27.70;;
17153;SDS011;8692;52.164;7.558;2023-04-16T02:34:42;39.03;;;27.43;;
17153;SDS011;8692;52.164;7.558;2023-04-16T02:37:14;37.77;;;28.50;;
17153;SDS011;8692;52.164;7.558;2023-04-16T02:39:42;42.27;;;28.87;;
17153;SDS011;8692;52.164;7.558;2023-04-16T02:42:14;34.63;;;27.20;;
17153;SDS011;8692;52.164;7.558;2023-04-16T02:44:44;46.77;;;27.87;;
17153;SDS011;8692;52.164;7.558;2023-04-16T02:47:14;35.83;;;26.70;;
17153;SDS011;8692;52.164;7.558;2023-04-16T02:49:45;40.97;;;28.33;;
17153;SDS011;8692;52.164;7.558;2023-04-16T02:52:15;40.23;;;29.43;;
17153;SDS011;8692;52.164;7.558;2023-04-16T02:54:46;40.10;;;29.00;;
17153;SDS011;8692;52.164;7.558;2023-04-16T02:57:15;38.07;;;27.80;;
17153;SDS011;8692;52.164;7.558;2023-04-16T02:59:43;38.87;;;26.87;;
17153;SDS011;8692;52.164;7.558;2023-04-16T03:02:11;34.37;;;27.20;;
17153;SDS011;8692;52.164;7.558;2023-04-16T03:04:42;38.60;;;27.67;;
17153;SDS011;8692;52.164;7.558;2023-04-16T03:07:10;35.60;;;28.13;;
17153;SDS011;8692;52.164;7.558;2023-04-16T03:09:39;35.33;;;28.83;;
17153;SDS011;8692;52.164;7.558;2023-04-16T03:12:07;41.73;;;27.63;;
17153;SDS011;8692;52.164;7.558;2023-04-16T03:14:38;36.20;;;27.50;;
17153;SDS011;8692;52.164;7.558;2023-04-16T03:17:06;35.90;;;27.40;;
17153;SDS011;8692;52.164;7.558;2023-04-16T03:19:37;41.47;;;27.97;;
17153;SDS011;8692;52.164;7.558;2023-04-16T03:22:05;36.33;;;27.63;;
17153;SDS011;8692;52.164;7.558;2023-04-16T03:24:33;42.03;;;29.50;;
17153;SDS011;8692;52.164;7.558;2023-04-16T03:27:01;38.40;;;28.50;;
17153;SDS011;8692;52.164;7.558;2023-04-16T03:29:34;38.73;;;29.27;;
17153;SDS011;8692;52.164;7.558;2023-04-16T03:32:08;42.20;;;30.43;;
17153;SDS011;8692;52.164;7.558;2023-04-16T03:34:37;40.33;;;28.93;;
17153;SDS011;8692;52.164;7.558;2023-04-16T03:37:08;40.10;;;30.33;;
17153;SDS011;8692;52.164;7.558;2023-04-16T03:39:39;38.37;;;28.37;;
17153;SDS011;8692;52.164;7.558;2023-04-16T03:42:09;43.43;;;29.17;;
17153;SDS011;8692;52.164;7.558;2023-04-16T03:44:39;41.83;;;28.87;;
17153;SDS011;8692;52.164;7.558;2023-04-16T03:47:11;38.60;;;29.87;;
17153;SDS011;8692;52.164;7.558;2023-04-16T03:49:39;42.07;;;29.40;;
17153;SDS011;8692;52.164;7.558;2023-04-16T03:52:07;38.23;;;30.47;;
17153;SDS011;8692;52.164;7.558;2023-04-16T03:54:36;39.40;;;29.73;;
17153;SDS011;8692;52.164;7.558;2023-04-16T03:57:17;38.43;;;28.67;;
17153;SDS011;8692;52.164;7.558;2023-04-16T03:59:47;33.77;;;27.90;;
17153;SDS011;8692;52.164;7.558;2023-04-16T04:02:19;33.27;;;26.83;;
17153;SDS011;8692;52.164;7.558;2023-04-16T04:04:47;42.73;;;28.80;;
17153;SDS011;8692;52.164;7.558;2023-04-16T04:07:16;39.00;;;28.70;;
17153;SDS011;8692;52.164;7.558;2023-04-16T04:09:46;37.40;;;28.83;;
17153;SDS011;8692;52.164;7.558;2023-04-16T04:12:14;43.97;;;29.20;;
17153;SDS011;8692;52.164;7.558;2023-04-16T04:14:46;38.50;;;29.57;;
17153;SDS011;8692;52.164;7.558;2023-04-16T04:17:14;40.23;;;30.13;;
17153;SDS011;8692;52.164;7.558;2023-04-16T04:19:43;38.90;;;28.53;;
17153;SDS011;8692;52.164;7.558;2023-04-16T04:22:27;36.07;;;29.73;;
17153;SDS011;8692;52.164;7.558;2023-04-16T04:24:58;34.93;;;28.60;;
17153;SDS011;8692;52.164;7.558;2023-04-16T04:27:29;39.87;;;29.93;;
17153;SDS011;8692;52.164;7.558;2023-04-16T04:30:00;39.40;;;27.67;;
17153;SDS011;8692;52.164;7.558;2023-04-16T04:32:30;39.60;;;30.10;;
17153;SDS011;8692;52.164;7.558;2023-04-16T04:35:00;34.13;;;28.90;;
17153;SDS011;8692;52.164;7.558;2023-04-16T04:37:29;34.27;;;27.60;;
17153;SDS011;8692;52.164;7.558;2023-04-16T04:39:57;34.80;;;27.93;;
17153;SDS011;8692;52.164;7.558;2023-04-16T04:42:26;33.80;;;28.27;;
17153;SDS011;8692;52.164;7.558;2023-04-16T04:44:54;35.70;;;29.27;;
17153;SDS011;8692;52.164;7.558;2023-04-16T04:47:22;40.23;;;29.53;;
17153;SDS011;8692;52.164;7.558;2023-04-16T04:49:51;39.03;;;29.23;;
17153;SDS011;8692;52.164;7.558;2023-04-16T04:52:21;40.97;;;29.53;;
17153;SDS011;8692;52.164;7.558;2023-04-16T04:54:49;37.43;;;28.20;;
17153;SDS011;8692;52.164;7.558;2023-04-16T04:57:18;37.90;;;29.40;;
17153;SDS011;8692;52.164;7.558;2023-04-16T04:59:50;39.83;;;28.20;;
17153;SDS011;8692;52.164;7.558;2023-04-16T05:02:18;42.50;;;29.20;;
17153;SDS011;8692;52.164;7.558;2023-04-16T05:04:46;36.13;;;28.33;;
17153;SDS011;8692;52.164;7.558;2023-04-16T05:07:17;41.37;;;29.00;;
17153;SDS011;8692;52.164;7.558;2023-04-16T05:09:47;38.10;;;29.60;;
17153;SDS011;8692;52.164;7.558;2023-04-16T05:12:15;38.47;;;30.07;;
17153;SDS011;8692;52.164;7.558;2023-04-16T05:14:45;38.20;;;28.77;;
17153;SDS011;8692;52.164;7.558;2023-04-16T05:17:15;36.77;;;29.43;;
17153;SDS011;8692;52.164;7.558;2023-04-16T05:19:46;33.43;;;27.10;;
17153;SDS011;8692;52.164;7.558;2023-04-16T05:22:14;36.87;;;29.60;;
17153;SDS011;8692;52.164;7.558;2023-04-16T05:24:48;35.17;;;27.90;;
17153;SDS011;8692;52.164;7.558;2023-04-16T05:27:16;41.07;;;30.67;;
17153;SDS011;8692;52.164;7.558;2023-04-16T05:29:44;39.83;;;30.20;;
17153;SDS011;8692;52.164;7.558;2023-04-16T05:32:12;37.70;;;29.57;;
17153;SDS011;8692;52.164;7.558;2023-04-16T05:34:43;38.83;;;27.60;;
17153;SDS011;8692;52.164;7.558;2023-04-16T05:37:11;40.53;;;31.13;;
17153;SDS011;8692;52.164;7.558;2023-04-16T05:39:39;35.67;;;28.07;;
17153;SDS011;8692;52.164;7.558;2023-04-16T05:42:09;36.87;;;29.97;;
17153;SDS011;8692;52.164;7.558;2023-04-16T05:44:39;38.47;;;29.87;;
17153;SDS011;8692;52.164;7.558;2023-04-16T05:47:09;36.73;;;29.00;;
17153;SDS011;8692;52.164;7.558;2023-04-16T05:49:38;37.70;;;29.77;;
17153;SDS011;8692;52.164;7.558;2023-04-16T05:52:06;38.70;;;30.17;;
17153;SDS011;8692;52.164;7.558;2023-04-16T05:54:34;38.90;;;29.10;;
17153;SDS011;8692;52.164;7.558;2023-04-16T05:57:02;42.47;;;29.47;;
17153;SDS011;8692;52.164;7.558;2023-04-16T05:59:32;33.97;;;27.57;;
17153;SDS011;8692;52.164;7.558;2023-04-16T06:02:00;39.20;;;30.13;;
17153;SDS011;8692;52.164;7.558;2023-04-16T06:04:28;35.90;;;26.53;;
17153;SDS011;8692;52.164;7.558;2023-04-16T06:06:57;38.63;;;27.50;;
17153;SDS011;8692;52.164;7.558;2023-04-16T06:09:25;35.50;;;28.17;;
17153;SDS011;8692;52.164;7.558;2023-04-16T06:11:55;36.80;;;29.80;;
17153;SDS011;8692;52.164;7.558;2023-04-16T06:14:23;41.70;;;29.13;;
17153;SDS011;8692;52.164;7.558;2023-04-16T06:16:53;40.47;;;29.07;;
17153;SDS011;8692;52.164;7.558;2023-04-16T06:19:21;38.63;;;29.50;;
17153;SDS011;8692;52.164;7.558;2023-04-16T06:21:49;37.43;;;30.50;;
17153;SDS011;8692;52.164;7.558;2023-04-16T06:24:20;39.47;;;29.23;;
17153;SDS011;8692;52.164;7.558;2023-04-16T06:26:48;36.27;;;29.10;;
17153;SDS011;8692;52.164;7.558;2023-04-16T06:29:17;34.67;;;27.00;;
17153;SDS011;8692;52.164;7.558;2023-04-16T06:31:54;36.90;;;28.30;;
17153;SDS011;8692;52.164;7.558;2023-04-16T06:34:22;37.87;;;29.93;;
17153;SDS011;8692;52.164;7.558;2023-04-16T06:36:51;37.20;;;29.50;;
17153;SDS011;8692;52.164;7.558;2023-04-16T06:39:21;36.17;;;29.33;;
17153;SDS011;8692;52.164;7.558;2023-04-16T06:41:49;34.23;;;28.57;;
17153;SDS011;8692;52.164;7.558;2023-04-16T06:44:17;38.07;;;28.17;;
17153;SDS011;8692;52.164;7.558;2023-04-16T06:46:46;34.73;;;27.27;;
17153;SDS011;8692;52.164;7.558;2023-04-16T06:49:15;38.73;;;28.83;;
17153;SDS011;8692;52.164;7.558;2023-04-16T06:51:43;36.90;;;28.13;;
17153;SDS011;8692;52.164;7.558;2023-04-16T06:54:12;36.07;;;27.83;;
17153;SDS011;8692;52.164;7.558;2023-04-16T06:56:42;36.73;;;27.67;;
17153;SDS011;8692;52.164;7.558;2023-04-16T06:59:10;38.20;;;28.50;;
17153;SDS011;8692;52.164;7.558;2023-04-16T07:01:38;38.90;;;34.80;;
17153;SDS011;8692;52.164;7.558;2023-04-16T07:04:06;40.27;;;30.97;;
17153;SDS011;8692;52.164;7.558;2023-04-16T07:06:37;37.33;;;29.50;;
17153;SDS011;8692;52.164;7.558;2023-04-16T07:09:06;32.57;;;27.50;;
17153;SDS011;8692;52.164;7.558;2023-04-16T07:11:34;38.45;;;34.65;;
17153;SDS011;8692;52.164;7.558;2023-04-16T07:14:02;32.53;;;28.37;;
17153;SDS011;8692;52.164;7.558;2023-04-16T07:16:33;37.50;;;28.13;;
17153;SDS011;8692;52.164;7.558;2023-04-16T07:19:03;36.20;;;28.77;;
17153;SDS011;8692;52.164;7.558;2023-04-16T07:21:31;33.40;;;27.67;;
17153;SDS011;8692;52.164;7.558;2023-04-16T07:24:01;37.77;;;28.63;;
17153;SDS011;8692;52.164;7.558;2023-04-16T07:26:29;32.13;;;26.20;;
17153;SDS011;8692;52.164;7.558;2023-04-16T07:28:59;31.43;;;26.83;;
17153;SDS011;8692;52.164;7.558;2023-04-16T07:31:30;32.60;;;27.70;;
17153;SDS011;8692;52.164;7.558;2023-04-16T07:33:58;29.77;;;25.37;;
17153;SDS011;8692;52.164;7.558;2023-04-16T07:36:29;31.03;;;25.90;;
17153;SDS011;8692;52.164;7.558;2023-04-16T07:38:57;32.93;;;27.13;;
17153;SDS011;8692;52.164;7.558;2023-04-16T07:41:27;31.37;;;26.20;;
17153;SDS011;8692;52.164;7.558;2023-04-16T07:43:55;30.20;;;26.20;;
17153;SDS011;8692;52.164;7.558;2023-04-16T07:46:24;28.50;;;24.00;;
17153;SDS011;8692;52.164;7.558;2023-04-16T07:49:05;30.67;;;24.77;;
17153;SDS011;8692;52.164;7.558;2023-04-16T07:51:33;30.43;;;26.43;;
17153;SDS011;8692;52.164;7.558;2023-04-16T07:54:01;31.33;;;26.30;;
17153;SDS011;8692;52.164;7.558;2023-04-16T07:56:31;31.77;;;25.37;;
17153;SDS011;8692;52.164;7.558;2023-04-16T07:58:59;29.80;;;25.07;;
17153;SDS011;8692;52.164;7.558;2023-04-16T08:01:44;27.87;;;24.87;;
17153;SDS011;8692;52.164;7.558;2023-04-16T08:04:14;31.23;;;25.63;;
17153;SDS011;8692;52.164;7.558;2023-04-16T08:06:48;29.73;;;25.37;;
17153;SDS011;8692;52.164;7.558;2023-04-16T08:09:17;29.50;;;24.83;;
17153;SDS011;8692;52.164;7.558;2023-04-16T08:11:47;28.67;;;24.70;;
17153;SDS011;8692;52.164;7.558;2023-04-16T08:14:16;28.53;;;23.97;;
17153;SDS011;8692;52.164;7.558;2023-04-16T08:16:44;27.90;;;23.97;;
17153;SDS011;8692;52.164;7.558;2023-04-16T08:19:12;30.47;;;25.70;;
17153;SDS011;8692;52.164;7.558;2023-04-16T08:21:40;30.87;;;24.17;;
17153;SDS011;8692;52.164;7.558;2023-04-16T08:24:09;29.00;;;24.77;;
17153;SDS011;8692;52.164;7.558;2023-04-16T08:26:37;27.37;;;24.27;;
17153;SDS011;8692;52.164;7.558;2023-04-16T08:29:07;27.67;;;24.70;;
17153;SDS011;8692;52.164;7.558;2023-04-16T08:31:35;28.67;;;24.33;;
17153;SDS011;8692;52.164;7.558;2023-04-16T08:34:04;28.13;;;22.80;;
17153;SDS011;8692;52.164;7.558;2023-04-16T08:36:32;26.00;;;23.20;;
17153;SDS011;8692;52.164;7.558;2023-04-16T08:39:00;25.70;;;22.83;;
17153;SDS011;8692;52.164;7.558;2023-04-16T08:41:29;27.27;;;23.57;;
17153;SDS011;8692;52.164;7.558;2023-04-16T08:43:59;28.03;;;23.20;;
17153;SDS011;8692;52.164;7.558;2023-04-16T08:46:35;25.07;;;22.37;;
17153;SDS011;8692;52.164;7.558;2023-04-16T08:49:05;25.07;;;22.47;;
17153;SDS011;8692;52.164;7.558;2023-04-16T08:51:35;24.33;;;21.60;;
17153;SDS011;8692;52.164;7.558;2023-04-16T08:54:07;24.77;;;22.17;;
17153;SDS011;8692;52.164;7.558;2023-04-16T08:56:38;23.70;;;21.27;;
17153;SDS011;8692;52.164;7.558;2023-04-16T08:59:08;22.97;;;19.97;;
17153;SDS011;8692;52.164;7.558;2023-04-16T09:01:38;22.37;;;19.97;;
17153;SDS011;8692;52.164;7.558;2023-04-16T09:04:07;23.73;;;21.23;;
17153;SDS011;8692;52.164;7.558;2023-04-16T09:06:36;22.10;;;19.23;;
17153;SDS011;8692;52.164;7.558;2023-04-16T09:09:06;23.30;;;17.97;;
17153;SDS011;8692;52.164;7.558;2023-04-16T09:11:37;20.10;;;17.90;;
17153;SDS011;8692;52.164;7.558;2023-04-16T09:14:06;21.10;;;18.57;;
17153;SDS011;8692;52.164;7.558;2023-04-16T09:16:38;21.53;;;18.33;;
17153;SDS011;8692;52.164;7.558;2023-04-16T09:19:07;19.63;;;16.53;;
17153;SDS011;8692;52.164;7.558;2023-04-16T09:21:35;18.07;;;16.07;;
17153;SDS011;8692;52.164;7.558;2023-04-16T09:24:04;18.07;;;15.33;;
17153;SDS011;8692;52.164;7.558;2023-04-16T09:26:36;19.33;;;16.20;;
17153;SDS011;8692;52.164;7.558;2023-04-16T09:29:07;18.57;;;16.60;;
17153;SDS011;8692;52.164;7.558;2023-04-16T09:31:36;18.07;;;15.67;;
17153;SDS011;8692;52.164;7.558;2023-04-16T09:34:05;17.57;;;15.73;;
17153;SDS011;8692;52.164;7.558;2023-04-16T09:36:35;16.67;;;14.60;;
17153;SDS011;8692;52.164;7.558;2023-04-16T09:39:06;24.43;;;16.87;;
17153;SDS011;8692;52.164;7.558;2023-04-16T09:41:44;18.87;;;15.20;;
17153;SDS011;8692;52.164;7.558;2023-04-16T09:44:13;17.60;;;15.67;;
17153;SDS011;8692;52.164;7.558;2023-04-16T09:46:41;17.63;;;15.67;;
17153;SDS011;8692;52.164;7.558;2023-04-16T09:49:12;17.27;;;14.53;;
17153;SDS011;8692;52.164;7.558;2023-04-16T09:51:41;15.40;;;13.80;;
17153;SDS011;8692;52.164;7.558;2023-04-16T09:54:12;16.43;;;14.33;;
17153;SDS011;8692;52.164;7.558;2023-04-16T09:56:41;16.60;;;14.83;;
17153;SDS011;8692;52.164;7.558;2023-04-16T09:59:15;16.30;;;14.37;;
17153;SDS011;8692;52.164;7.558;2023-04-16T10:01:43;16.13;;;14.50;;
17153;SDS011;8692;52.164;7.558;2023-04-16T10:04:14;16.93;;;15.00;;
17153;SDS011;8692;52.164;7.558;2023-04-16T10:06:42;16.67;;;14.97;;
17153;SDS011;8692;52.164;7.558;2023-04-16T10:09:16;16.47;;;14.77;;
17153;SDS011;8692;52.164;7.558;2023-04-16T10:11:44;16.30;;;14.37;;
17153;SDS011;8692;52.164;7.558;2023-04-16T10:14:15;15.53;;;13.80;;
17153;SDS011;8692;52.164;7.558;2023-04-16T10:16:43;16.00;;;14.50;;
17153;SDS011;8692;52.164;7.558;2023-04-16T10:19:11;16.63;;;13.87;;
17153;SDS011;8692;52.164;7.558;2023-04-16T10:21:41;14.93;;;13.47;;
17153;SDS011;8692;52.164;7.558;2023-04-16T10:24:10;14.90;;;13.33;;
17153;SDS011;8692;52.164;7.558;2023-04-16T10:26:41;16.10;;;13.33;;
17153;SDS011;8692;52.164;7.558;2023-04-16T10:29:13;16.00;;;14.40;;
17153;SDS011;8692;52.164;7.558;2023-04-16T10:31:44;15.30;;;13.67;;
17153;SDS011;8692;52.164;7.558;2023-04-16T10:34:15;14.53;;;13.13;;
17153;SDS011;8692;52.164;7.558;2023-04-16T10:36:46;15.10;;;13.23;;
17153;SDS011;8692;52.164;7.558;2023-04-16T10:39:17;13.63;;;12.27;;
17153;SDS011;8692;52.164;7.558;2023-04-16T10:41:46;13.57;;;12.10;;
17153;SDS011;8692;52.164;7.558;2023-04-16T10:44:18;15.50;;;12.17;;
17153;SDS011;8692;52.164;7.558;2023-04-16T10:46:46;14.13;;;11.43;;
17153;SDS011;8692;52.164;7.558;2023-04-16T10:49:17;14.30;;;11.80;;
17153;SDS011;8692;52.164;7.558;2023-04-16T10:51:53;13.30;;;12.10;;
17153;SDS011;8692;52.164;7.558;2023-04-16T10:54:25;15.17;;;12.60;;
17153;SDS011;8692;52.164;7.558;2023-04-16T10:56:55;13.83;;;12.33;;
17153;SDS011;8692;52.164;7.558;2023-04-16T10:59:24;14.90;;;12.97;;
17153;SDS011;8692;52.164;7.558;2023-04-16T11:01:57;13.17;;;11.87;;
17153;SDS011;8692;52.164;7.558;2023-04-16T11:04:32;12.50;;;11.33;;
17153;SDS011;8692;52.164;7.558;2023-04-16T11:07:04;12.93;;;10.67;;
17153;SDS011;8692;52.164;7.558;2023-04-16T11:09:46;13.00;;;11.70;;
17153;SDS011;8692;52.164;7.558;2023-04-16T11:12:19;12.20;;;10.97;;
17153;SDS011;8692;52.164;7.558;2023-04-16T11:14:52;13.87;;;12.00;;
17153;SDS011;8692;52.164;7.558;2023-04-16T11:17:21;13.47;;;12.13;;
17153;SDS011;8692;52.164;7.558;2023-04-16T11:19:51;15.07;;;12.13;;
17153;SDS011;8692;52.164;7.558;2023-04-16T11:22:19;14.67;;;12.20;;
17153;SDS011;8692;52.164;7.558;2023-04-16T11:24:52;13.83;;;12.30;;
17153;SDS011;8692;52.164;7.558;2023-04-16T11:27:21;13.50;;;11.97;;
17153;SDS011;8692;52.164;7.558;2023-04-16T11:29:56;16.50;;;12.13;;
17153;SDS011;8692;52.164;7.558;2023-04-16T11:32:26;13.57;;;12.10;;
17153;SDS011;8692;52.164;7.558;2023-04-16T11:34:58;13.57;;;12.27;;
17153;SDS011;8692;52.164;7.558;2023-04-16T11:37:32;13.97;;;12.53;;
17153;SDS011;8692;52.164;7.558;2023-04-16T11:40:01;15.90;;;13.03;;
17153;SDS011;8692;52.164;7.558;2023-04-16T11:42:32;15.50;;;12.63;;
17153;SDS011;8692;52.164;7.558;2023-04-16T11:45:02;14.37;;;12.53;;
17153;SDS011;8692;52.164;7.558;2023-04-16T11:47:41;14.17;;;12.70;;
17153;SDS011;8692;52.164;7.558;2023-04-16T11:50:19;13.37;;;11.60;;
17153;SDS011;8692;52.164;7.558;2023-04-16T11:52:49;15.03;;;12.50;;
17153;SDS011;8692;52.164;7.558;2023-04-16T11:55:19;14.87;;;12.77;;
17153;SDS011;8692;52.164;7.558;2023-04-16T11:57:48;15.63;;;12.63;;
17153;SDS011;8692;52.164;7.558;2023-04-16T12:00:20;14.90;;;12.33;;
17153;SDS011;8692;52.164;7.558;2023-04-16T12:02:50;15.20;;;12.13;;
17153;SDS011;8692;52.164;7.558;2023-04-16T12:05:29;14.40;;;11.87;;
17153;SDS011;8692;52.164;7.558;2023-04-16T12:07:59;12.83;;;11.53;;
17153;SDS011;8692;52.164;7.558;2023-04-16T12:10:32;16.77;;;13.07;;
17153;SDS011;8692;52.164;7.558;2023-04-16T12:13:09;13.40;;;12.00;;
17153;SDS011;8692;52.164;7.558;2023-04-16T12:15:45;14.40;;;11.53;;
17153;SDS011;8692;52.164;7.558;2023-04-16T12:18:17;13.43;;;12.03;;
17153;SDS011;8692;52.164;7.558;2023-04-16T12:20:49;12.67;;;11.13;;
17153;SDS011;8692;52.164;7.558;2023-04-16T12:23:23;13.63;;;11.87;;
17153;SDS011;8692;52.164;7.558;2023-04-16T12:25:52;12.03;;;10.87;;
17153;SDS011;8692;52.164;7.558;2023-04-16T12:28:28;13.43;;;10.30;;
17153;SDS011;8692;52.164;7.558;2023-04-16T12:30:57;13.23;;;10.90;;
17153;SDS011;8692;52.164;7.558;2023-04-16T12:33:26;13.00;;;11.43;;
17153;SDS011;8692;52.164;7.558;2023-04-16T12:35:56;12.77;;;11.53;;
17153;SDS011;8692;52.164;7.558;2023-04-16T12:38:25;14.20;;;11.70;;
17153;SDS011;8692;52.164;7.558;2023-04-16T12:40:54;12.03;;;10.83;;
17153;SDS011;8692;52.164;7.558;2023-04-16T12:43:23;13.37;;;10.70;;
17153;SDS011;8692;52.164;7.558;2023-04-16T12:45:52;12.20;;;10.43;;
17153;SDS011;8692;52.164;7.558;2023-04-16T12:48:20;15.43;;;10.80;;
17153;SDS011;8692;52.164;7.558;2023-04-16T12:50:51;11.40;;;10.20;;
17153;SDS011;8692;52.164;7.558;2023-04-16T12:53:21;11.60;;;10.40;;
17153;SDS011;8692;52.164;7.558;2023-04-16T12:55:50;13.33;;;10.57;;
17153;SDS011;8692;52.164;7.558;2023-04-16T12:58:18;12.13;;;10.57;;
17153;SDS011;8692;52.164;7.558;2023-04-16T13:00:47;10.83;;;9.27;;
17153;SDS011;8692;52.164;7.558;2023-04-16T13:03:15;11.10;;;9.97;;
17153;SDS011;8692;52.164;7.558;2023-04-16T13:05:44;11.60;;;10.40;;
17153;SDS011;8692;52.164;7.558;2023-04-16T13:08:12;11.67;;;9.97;;
17153;SDS011;8692;52.164;7.558;2023-04-16T13:10:43;14.27;;;9.47;;
17153;SDS011;8692;52.164;7.558;2023-04-16T13:13:12;11.93;;;10.13;;
17153;SDS011;8692;52.164;7.558;2023-04-16T13:15:41;13.57;;;10.37;;
17153;SDS011;8692;52.164;7.558;2023-04-16T13:18:10;12.13;;;9.63;;
17153;SDS011;8692;52.164;7.558;2023-04-16T13:20:39;10.77;;;9.73;;
17153;SDS011;8692;52.164;7.558;2023-04-16T13:23:07;13.17;;;9.90;;
17153;SDS011;8692;52.164;7.558;2023-04-16T13:25:35;13.73;;;10.90;;
17153;SDS011;8692;52.164;7.558;2023-04-16T13:28:05;46.80;;;12.57;;
17153;SDS011;8692;52.164;7.558;2023-04-16T13:30:34;12.20;;;9.27;;
17153;SDS011;8692;52.164;7.558;2023-04-16T13:33:02;9.73;;;8.73;;
17153;SDS011;8692;52.164;7.558;2023-04-16T13:35:31;10.43;;;9.43;;
17153;SDS011;8692;52.164;7.558;2023-04-16T13:38:00;9.30;;;8.40;;
17153;SDS011;8692;52.164;7.558;2023-04-16T13:40:28;12.07;;;9.47;;
17153;SDS011;8692;52.164;7.558;2023-04-16T13:42:57;10.13;;;9.17;;
17153;SDS011;8692;52.164;7.558;2023-04-16T13:45:27;11.13;;;8.97;;
17153;SDS011;8692;52.164;7.558;2023-04-16T13:47:55;14.37;;;9.43;;
17153;SDS011;8692;52.164;7.558;2023-04-16T13:50:24;11.87;;;8.47;;
17153;SDS011;8692;52.164;7.558;2023-04-16T13:52:52;9.80;;;8.50;;
17153;SDS011;8692;52.164;7.558;2023-04-16T13:55:20;9.03;;;8.07;;
17153;SDS011;8692;52.164;7.558;2023-04-16T13:57:49;9.00;;;7.97;;
17153;SDS011;8692;52.164;7.558;2023-04-16T14:00:18;9.57;;;8.40;;
17153;SDS011;8692;52.164;7.558;2023-04-16T14:02:48;10.43;;;8.30;;
17153;SDS011;8692;52.164;7.558;2023-04-16T14:05:17;11.00;;;9.90;;
17153;SDS011;8692;52.164;7.558;2023-04-16T14:07:46;12.70;;;9.30;;
17153;SDS011;8692;52.164;7.558;2023-04-16T14:10:14;9.60;;;8.60;;
17153;SDS011;8692;52.164;7.558;2023-04-16T14:12:45;10.13;;;9.07;;
17153;SDS011;8692;52.164;7.558;2023-04-16T14:15:13;8.97;;;8.07;;
17153;SDS011;8692;52.164;7.558;2023-04-16T14:17:41;10.07;;;8.97;;
17153;SDS011;8692;52.164;7.558;2023-04-16T14:20:13;8.83;;;8.03;;
17153;SDS011;8692;52.164;7.558;2023-04-16T14:22:41;9.63;;;8.63;;
17153;SDS011;8692;52.164;7.558;2023-04-16T14:25:14;9.60;;;8.60;;
17153;SDS011;8692;52.164;7.558;2023-04-16T14:27:43;9.87;;;8.87;;
17153;SDS011;8692;52.164;7.558;2023-04-16T14:30:11;9.23;;;8.33;;
17153;SDS011;8692;52.164;7.558;2023-04-16T14:32:40;10.60;;;8.33;;
17153;SDS011;8692;52.164;7.558;2023-04-16T14:35:08;9.90;;;8.70;;
17153;SDS011;8692;52.164;7.558;2023-04-16T14:37:38;10.07;;;9.13;;
17153;SDS011;8692;52.164;7.558;2023-04-16T14:40:07;9.53;;;8.13;;
17153;SDS011;8692;52.164;7.558;2023-04-16T14:42:36;8.90;;;8.07;;
17153;SDS011;8692;52.164;7.558;2023-04-16T14:45:05;10.47;;;8.67;;
17153;SDS011;8692;52.164;7.558;2023-04-16T14:47:35;8.00;;;7.23;;
17153;SDS011;8692;52.164;7.558;2023-04-16T14:50:11;9.17;;;7.97;;
17153;SDS011;8692;52.164;7.558;2023-04-16T14:52:43;9.37;;;8.47;;